createdAt,value
2022-12-19T00:01:55.381Z,52.20
2022-12-19T00:04:41.232Z,58.00
2022-12-19T00:07:27.501Z,57.05
2022-12-19T00:10:13.362Z,52.10
2022-12-19T00:12:59.106Z,55.00
2022-12-19T00:15:44.923Z,54.75
2022-12-19T00:18:31.335Z,61.78
2022-12-19T00:21:19.604Z,61.53
2022-12-19T00:24:14.513Z,57.65
2022-12-19T00:27:06.637Z,54.65
2022-12-19T00:29:52.313Z,58.13
2022-12-19T00:32:38.316Z,51.72
2022-12-19T00:35:24.298Z,59.72
2022-12-19T00:38:10.433Z,53.33
2022-12-19T00:40:56.458Z,51.55
2022-12-19T00:43:44.116Z,53.20
2022-12-19T00:46:31.757Z,55.33
2022-12-19T00:49:17.704Z,51.65
2022-12-19T00:52:05.565Z,52.67
2022-12-19T00:54:51.430Z,55.20
2022-12-19T00:57:38.744Z,50.55
2022-12-19T01:00:24.434Z,62.08
2022-12-19T01:03:10.230Z,56.92
2022-12-19T01:05:56.857Z,50.40
2022-12-19T01:08:43.194Z,49.38
2022-12-19T01:11:47.339Z,52.72
2022-12-19T01:14:33.353Z,47.58
2022-12-19T01:17:19.825Z,51.58
2022-12-19T01:20:06.016Z,51.78
2022-12-19T01:22:51.838Z,48.25
2022-12-19T01:25:39.109Z,47.58
2022-12-19T01:28:30.905Z,46.67
2022-12-19T01:31:16.744Z,49.50
2022-12-19T01:34:04.701Z,45.83
2022-12-19T01:36:51.522Z,48.67
2022-12-19T01:39:37.456Z,43.72
2022-12-19T01:42:25.645Z,48.63
2022-12-19T01:45:13.995Z,50.08
2022-12-19T01:48:05.488Z,41.60
2022-12-19T01:51:03.376Z,56.20
2022-12-19T01:54:00.561Z,41.97
2022-12-19T01:56:55.815Z,56.50
2022-12-19T01:59:57.236Z,44.25
2022-12-19T02:02:54.853Z,47.92
2022-12-19T02:05:41.250Z,48.88
2022-12-19T02:08:28.459Z,45.40
2022-12-19T02:11:16.501Z,42.75
2022-12-19T02:14:02.570Z,41.05
2022-12-19T02:16:54.431Z,44.33
2022-12-19T02:20:03.590Z,43.42
2022-12-19T02:23:16.025Z,44.80
2022-12-19T02:26:23.909Z,45.30
2022-12-19T02:29:39.759Z,41.35
2022-12-19T02:32:38.411Z,45.13
2022-12-19T02:35:41.980Z,44.20
2022-12-19T02:41:26.076Z,43.95
2022-12-19T02:44:42.898Z,42.72
2022-12-19T02:47:29.970Z,45.25
2022-12-19T02:50:16.420Z,49.70
2022-12-19T02:53:02.231Z,42.38
2022-12-19T02:56:03.634Z,45.97
2022-12-19T02:59:22.337Z,43.15
2022-12-19T03:03:01.244Z,42.35
2022-12-19T03:06:12.656Z,43.92
2022-12-19T03:09:16.058Z,46.20
2022-12-19T03:12:17.550Z,39.20
2022-12-19T03:15:04.612Z,41.70
2022-12-19T03:17:51.163Z,45.92
2022-12-19T03:20:48.258Z,47.85
2022-12-19T03:23:34.371Z,51.80
2022-12-19T03:26:23.657Z,41.05
2022-12-19T03:29:20.010Z,43.05
2022-12-19T03:32:11.179Z,39.60
2022-12-19T03:35:07.438Z,46.40
2022-12-19T03:38:10.584Z,43.15
2022-12-19T03:40:57.045Z,44.88
2022-12-19T03:43:44.952Z,46.33
2022-12-19T03:46:31.183Z,46.28
2022-12-19T03:49:17.392Z,43.85
2022-12-19T03:52:06.365Z,46.92
2022-12-19T03:55:01.431Z,48.70
2022-12-19T03:57:52.658Z,46.80
2022-12-19T04:00:40.644Z,41.92
2022-12-19T04:03:28.059Z,47.92
2022-12-19T04:06:14.633Z,47.47
2022-12-19T04:09:01.693Z,41.75
2022-12-19T04:11:52.450Z,39.03
2022-12-19T04:14:39.074Z,48.03
2022-12-19T04:17:53.755Z,45.63
2022-12-19T04:20:41.476Z,38.17
2022-12-19T04:23:47.677Z,38.42
2022-12-19T04:26:35.225Z,37.35
2022-12-19T04:29:22.139Z,35.33
2022-12-19T04:32:09.105Z,35.10
2022-12-19T04:34:54.899Z,31.83
2022-12-19T04:37:40.662Z,28.42
2022-12-19T04:40:26.303Z,24.27
2022-12-19T04:43:12.134Z,27.23
2022-12-19T04:45:58.069Z,27.40
2022-12-19T04:48:43.771Z,36.15
2022-12-19T04:51:29.642Z,42.13
2022-12-19T04:54:16.025Z,40.95
2022-12-19T04:57:02.095Z,45.25
2022-12-19T04:59:47.874Z,46.55
2022-12-19T05:02:33.881Z,44.28
2022-12-19T05:05:20.009Z,40.10
2022-12-19T05:08:05.993Z,44.65
2022-12-19T05:10:51.815Z,45.90
2022-12-19T05:13:37.821Z,47.38
2022-12-19T05:16:23.761Z,47.35
2022-12-19T05:19:09.786Z,42.25
2022-12-19T05:21:55.741Z,44.40
2022-12-19T05:24:41.774Z,44.17
2022-12-19T05:27:27.695Z,43.33
2022-12-19T05:30:13.511Z,44.75
2022-12-19T05:32:59.545Z,49.22
2022-12-19T05:35:45.500Z,49.20
2022-12-19T05:38:31.443Z,52.70
2022-12-19T05:41:19.211Z,53.83
2022-12-19T05:44:05.266Z,53.50
2022-12-19T05:46:50.987Z,49.83
2022-12-19T05:49:36.827Z,47.72
2022-12-19T05:52:23.139Z,51.60
2022-12-19T05:55:09.955Z,52.35
2022-12-19T05:57:55.868Z,49.33
2022-12-19T06:00:41.560Z,41.58
2022-12-19T06:03:28.210Z,42.25
2022-12-19T06:06:17.192Z,27.67
2022-12-19T06:09:03.055Z,26.95
2022-12-19T06:11:48.783Z,33.47
2022-12-19T06:14:34.565Z,34.85
2022-12-19T06:17:20.477Z,61.38
2022-12-19T06:20:07.118Z,32.50
2022-12-19T06:22:53.227Z,26.90
2022-12-19T06:25:38.948Z,39.45
2022-12-19T06:28:25.732Z,41.20
2022-12-19T06:31:12.316Z,33.03
2022-12-19T06:33:58.206Z,33.80
2022-12-19T06:36:44.055Z,49.95
2022-12-19T06:39:30.434Z,31.98
2022-12-19T06:42:25.601Z,26.80
2022-12-19T06:45:11.632Z,26.83
2022-12-19T06:47:57.664Z,30.45
2022-12-19T06:50:45.664Z,32.67
2022-12-19T06:53:31.494Z,26.73
2022-12-19T06:56:18.047Z,24.38
2022-12-19T06:59:05.162Z,28.33
2022-12-19T07:02:00.520Z,24.70
2022-12-19T07:05:02.592Z,37.38
2022-12-19T07:07:48.633Z,29.00
2022-12-19T07:10:34.615Z,23.80
2022-12-19T07:13:20.777Z,28.92
2022-12-19T07:16:07.271Z,26.77
2022-12-19T07:18:53.118Z,25.45
2022-12-19T07:21:39.418Z,30.60
2022-12-19T07:24:25.979Z,28.08
2022-12-19T07:27:11.729Z,29.60
2022-12-19T07:29:57.655Z,21.73
2022-12-19T07:32:43.600Z,19.52
2022-12-19T07:35:29.730Z,24.15
2022-12-19T07:38:15.511Z,23.70
2022-12-19T07:41:02.162Z,17.42
2022-12-19T07:43:47.751Z,26.00
2022-12-19T07:46:33.497Z,34.83
2022-12-19T07:49:22.652Z,42.33
2022-12-19T07:52:08.879Z,45.92
2022-12-19T07:54:54.715Z,48.10
2022-12-19T07:57:40.799Z,41.92
2022-12-19T08:00:26.585Z,50.13
2022-12-19T08:03:12.842Z,53.42
2022-12-19T08:06:06.589Z,54.45
2022-12-19T08:11:38.276Z,58.58
2022-12-19T08:14:25.139Z,58.67
2022-12-19T08:17:20.300Z,46.05
2022-12-19T08:20:07.967Z,48.58
2022-12-19T08:22:54.006Z,46.28
2022-12-19T08:25:39.941Z,47.90
2022-12-19T08:28:26.338Z,49.63
2022-12-19T08:31:15.333Z,44.40
2022-12-19T08:34:01.367Z,41.15
2022-12-19T08:36:47.253Z,45.05
2022-12-19T08:39:33.279Z,49.58
2022-12-19T08:42:19.145Z,43.42
2022-12-19T08:45:05.904Z,50.92
2022-12-19T08:47:51.950Z,52.50
2022-12-19T08:50:37.600Z,48.75
2022-12-19T08:53:26.667Z,49.65
2022-12-19T08:56:16.770Z,67.15
2022-12-19T08:59:02.611Z,50.88
2022-12-19T09:01:48.737Z,52.50
2022-12-19T09:06:01.224Z,50.38
2022-12-19T09:07:41.079Z,48.92
2022-12-19T09:10:27.399Z,66.35
2022-12-19T09:13:13.646Z,54.72
2022-12-19T09:16:05.799Z,51.13
2022-12-19T09:18:54.673Z,56.78
2022-12-19T09:21:40.613Z,59.92
2022-12-19T09:24:26.507Z,64.93
2022-12-19T09:27:12.283Z,58.72
2022-12-19T09:29:59.833Z,63.25
2022-12-19T09:32:45.666Z,57.38
2022-12-19T09:35:31.483Z,60.38
2022-12-19T09:38:17.244Z,55.08
2022-12-19T09:41:31.627Z,51.45
2022-12-19T09:44:32.764Z,52.25
2022-12-19T09:47:21.872Z,54.72
2022-12-19T09:50:26.327Z,59.63
2022-12-19T09:53:31.890Z,53.67
2022-12-19T09:56:18.247Z,59.08
2022-12-19T09:59:49.875Z,54.22
2022-12-19T10:02:56.696Z,92.07
2022-12-19T10:07:15.825Z,225.88
2022-12-19T10:10:16.581Z,93.28
2022-12-19T10:12:51.176Z,61.85
2022-12-19T10:15:59.055Z,60.95
2022-12-19T10:18:57.353Z,61.03
2022-12-19T10:25:25.258Z,62.65
2022-12-19T10:28:26.418Z,71.53
2022-12-19T10:31:22.243Z,63.88
2022-12-19T10:34:21.161Z,80.55
2022-12-19T10:37:49.642Z,63.15
2022-12-19T10:41:44.001Z,59.88
2022-12-19T10:44:30.966Z,72.95
2022-12-19T10:47:17.638Z,72.00
2022-12-19T10:50:09.283Z,55.45
2022-12-19T10:53:15.032Z,43.50
2022-12-19T10:56:12.648Z,312.75
2022-12-19T10:58:59.253Z,103.82
2022-12-19T11:02:00.351Z,93.90
2022-12-19T11:05:20.015Z,57.30
2022-12-19T11:08:08.750Z,64.55
2022-12-19T11:15:44.153Z,66.50
2022-12-19T11:18:47.201Z,64.53
2022-12-19T11:24:30.022Z,48.25
2022-12-19T11:29:32.821Z,41.50
2022-12-19T11:29:54.274Z,62.13
2022-12-19T11:30:25.964Z,55.28
2022-12-19T11:34:16.099Z,59.60
2022-12-19T11:37:17.523Z,55.22
2022-12-19T11:40:25.706Z,54.17
2022-12-19T11:43:47.170Z,56.72
2022-12-19T11:46:34.533Z,55.35
2022-12-19T11:49:31.282Z,66.38
2022-12-19T11:53:13.010Z,64.60
2022-12-19T11:56:03.956Z,53.40
2022-12-19T11:58:55.148Z,50.30
2022-12-19T12:01:59.085Z,60.45
2022-12-19T12:04:45.226Z,53.90
2022-12-19T12:08:44.438Z,44.95
2022-12-19T12:16:13.578Z,40.58
2022-12-19T12:23:50.593Z,41.75
2022-12-19T12:31:04.067Z,41.53
2022-12-19T12:31:26.662Z,56.78
2022-12-19T12:31:29.545Z,52.65
2022-12-19T12:31:58.821Z,54.33
2022-12-19T12:35:35.102Z,54.40
2022-12-19T12:35:46.563Z,52.67
2022-12-19T12:41:15.026Z,46.65
2022-12-19T12:44:09.256Z,47.10
2022-12-19T12:47:05.306Z,44.10
2022-12-19T12:49:59.176Z,40.75
2022-12-19T12:52:51.096Z,48.03
2022-12-19T12:55:41.841Z,55.75
2022-12-19T12:58:50.123Z,50.65
2022-12-19T13:01:40.654Z,53.45
2022-12-19T13:04:35.302Z,53.58
2022-12-19T13:07:42.213Z,68.30
2022-12-19T13:10:32.160Z,70.22
2022-12-19T13:13:24.155Z,83.85
2022-12-19T13:16:45.993Z,84.60
2022-12-19T13:19:37.603Z,85.85
2022-12-19T13:22:29.693Z,79.45
2022-12-19T13:25:38.924Z,90.72
2022-12-19T13:28:25.008Z,115.82
2022-12-19T13:31:20.399Z,104.18
2022-12-19T13:34:17.629Z,95.05
2022-12-19T13:39:52.340Z,90.97
2022-12-19T13:40:51.184Z,91.13
2022-12-19T13:43:49.536Z,94.85
2022-12-19T13:46:40.323Z,96.75
2022-12-19T13:49:34.203Z,94.65
2022-12-19T13:52:23.008Z,93.72
2022-12-19T13:55:14.360Z,89.65
2022-12-19T13:58:04.403Z,95.75
2022-12-19T14:00:53.809Z,86.05
2022-12-19T14:03:43.178Z,95.63
2022-12-19T14:06:31.236Z,91.05
2022-12-19T14:11:28.011Z,89.05
2022-12-19T14:13:39.627Z,98.70
2022-12-19T14:16:05.304Z,89.25
2022-12-19T14:18:51.607Z,91.40
2022-12-19T14:22:09.747Z,90.53
2022-12-19T14:25:33.275Z,95.07
2022-12-19T14:28:18.428Z,84.88
2022-12-19T14:31:12.667Z,90.45
2022-12-19T14:34:27.178Z,96.25
2022-12-19T14:41:07.199Z,98.97
2022-12-19T14:43:59.551Z,98.20
2022-12-19T14:54:21.705Z,123.93
2022-12-19T14:54:23.041Z,102.82
2022-12-19T14:54:24.477Z,112.35
2022-12-19T14:57:00.938Z,131.18
2022-12-19T14:59:48.662Z,149.43
2022-12-19T15:02:35.319Z,126.55
2022-12-19T15:05:22.048Z,137.30
2022-12-19T15:08:11.087Z,126.63
2022-12-19T15:11:44.636Z,121.18
2022-12-19T15:14:52.916Z,103.10
2022-12-19T15:17:47.798Z,114.60
2022-12-19T15:20:33.589Z,98.53
2022-12-19T15:23:22.714Z,98.55
2022-12-19T15:26:16.139Z,116.07
2022-12-19T15:29:03.103Z,78.30
2022-12-19T15:31:49.148Z,87.78
2022-12-19T15:34:40.512Z,72.32
2022-12-19T15:37:32.522Z,81.15
2022-12-19T15:40:18.946Z,73.28
2022-12-19T15:43:05.512Z,75.30
2022-12-19T15:45:56.005Z,96.22
2022-12-19T15:48:46.560Z,108.43
2022-12-19T15:51:32.589Z,97.68
2022-12-19T15:57:37.933Z,102.97
2022-12-19T16:00:26.929Z,105.38
2022-12-19T16:03:23.593Z,109.03
2022-12-19T16:06:15.174Z,123.63
2022-12-19T16:09:01.474Z,110.43
2022-12-19T16:11:48.349Z,137.05
2022-12-19T16:14:34.293Z,130.70
2022-12-19T16:17:22.337Z,114.82
2022-12-19T16:20:21.861Z,112.85
2022-12-19T16:23:08.452Z,104.60
2022-12-19T16:25:54.267Z,100.88
2022-12-19T16:28:40.455Z,99.05
2022-12-19T16:31:28.068Z,102.00
2022-12-19T16:34:19.672Z,99.72
2022-12-19T16:37:05.467Z,100.85
2022-12-19T16:39:51.583Z,103.50
2022-12-19T16:42:37.649Z,108.70
2022-12-19T16:45:25.467Z,113.57
2022-12-19T16:48:19.037Z,129.23
2022-12-19T16:53:52.893Z,159.82
2022-12-19T16:56:54.919Z,138.93
2022-12-19T16:59:41.061Z,120.57
2022-12-19T17:02:45.964Z,126.75
2022-12-19T17:05:32.853Z,143.77
2022-12-19T17:08:19.360Z,135.35
2022-12-19T17:11:08.028Z,134.63
2022-12-19T17:14:02.489Z,153.00
2022-12-19T17:16:49.240Z,150.82
2022-12-19T17:19:39.385Z,142.20
2022-12-19T17:22:25.453Z,144.00
2022-12-19T17:25:24.469Z,139.43
2022-12-19T17:28:11.423Z,140.30
2022-12-19T17:31:00.172Z,143.05
2022-12-19T17:33:46.619Z,140.25
2022-12-19T17:36:37.044Z,144.63
2022-12-19T17:39:26.025Z,134.70
2022-12-19T17:42:22.296Z,142.80
2022-12-19T17:45:09.198Z,153.18
2022-12-19T17:48:02.348Z,149.77
2022-12-19T17:50:48.941Z,125.13
2022-12-19T17:53:35.098Z,136.95
2022-12-19T17:56:22.197Z,131.57
2022-12-19T17:59:07.942Z,131.18
2022-12-19T18:01:54.688Z,141.25
2022-12-19T18:04:40.843Z,117.28
2022-12-19T18:07:26.617Z,121.00
2022-12-19T18:10:38.775Z,119.95
2022-12-19T18:13:26.913Z,114.53
2022-12-19T18:16:15.162Z,114.60
2022-12-19T18:19:01.540Z,130.02
2022-12-19T18:21:48.140Z,112.30
2022-12-19T18:24:34.206Z,129.18
2022-12-19T18:27:20.190Z,116.25
2022-12-19T18:30:06.733Z,123.25
2022-12-19T18:32:58.665Z,117.32
2022-12-19T18:35:50.104Z,124.30
2022-12-19T18:38:36.166Z,132.13
2022-12-19T18:41:22.861Z,178.10
2022-12-19T18:44:09.043Z,129.10
2022-12-19T18:46:55.292Z,171.00
2022-12-19T18:49:41.388Z,125.47
2022-12-19T18:52:28.391Z,119.97
2022-12-19T18:55:19.445Z,116.50
2022-12-19T18:58:05.665Z,132.00
2022-12-19T19:00:57.287Z,120.45
2022-12-19T19:03:53.723Z,115.20
2022-12-19T19:06:46.421Z,110.60
2022-12-19T19:09:36.075Z,203.90
2022-12-19T19:12:42.646Z,102.70
2022-12-19T19:15:31.329Z,106.18
2022-12-19T19:18:23.413Z,94.20
2022-12-19T19:21:11.490Z,99.20
2022-12-19T19:24:06.377Z,102.18
2022-12-19T19:26:52.233Z,105.57
2022-12-19T19:29:38.938Z,107.32
2022-12-19T19:32:25.642Z,102.85
2022-12-19T19:35:11.756Z,103.55
2022-12-19T19:38:00.551Z,104.43
2022-12-19T19:40:46.526Z,94.22
2022-12-19T19:43:35.586Z,111.35
2022-12-19T19:46:21.867Z,120.70
2022-12-19T19:49:08.011Z,104.78
2022-12-19T19:51:58.652Z,112.30
2022-12-19T19:54:48.507Z,104.20
2022-12-19T19:57:35.093Z,105.53
2022-12-19T20:00:21.907Z,97.20
2022-12-19T20:03:10.240Z,108.55
2022-12-19T20:06:01.616Z,104.15
2022-12-19T20:08:47.862Z,104.60
2022-12-19T20:11:33.916Z,105.40
2022-12-19T20:14:19.902Z,109.75
2022-12-19T20:17:05.875Z,93.75
2022-12-19T20:19:51.880Z,100.07
2022-12-19T20:22:37.744Z,90.47
2022-12-19T20:25:23.911Z,111.95
2022-12-19T20:28:10.371Z,99.20
2022-12-19T20:30:56.516Z,110.72
2022-12-19T20:33:42.571Z,111.85
2022-12-19T20:36:28.846Z,103.70
2022-12-19T20:39:15.381Z,107.13
2022-12-19T20:42:01.410Z,104.32
2022-12-19T20:44:47.602Z,104.97
2022-12-19T20:47:33.617Z,113.47
2022-12-19T20:50:19.585Z,107.38
2022-12-19T20:53:05.436Z,110.70
2022-12-19T20:55:58.091Z,103.07
2022-12-19T20:58:47.487Z,103.90
2022-12-19T21:01:33.702Z,108.70
2022-12-19T21:04:19.996Z,112.63
2022-12-19T21:07:06.212Z,117.47
2022-12-19T21:09:54.093Z,125.82
2022-12-19T21:12:47.184Z,99.80
2022-12-19T21:15:34.631Z,94.60
2022-12-19T21:18:23.127Z,85.88
2022-12-19T21:21:15.083Z,92.65
2022-12-19T21:24:05.700Z,84.32
2022-12-19T21:26:57.838Z,97.93
2022-12-19T21:29:45.462Z,108.20
2022-12-19T21:32:33.519Z,104.15
2022-12-19T21:35:20.911Z,115.72
2022-12-19T21:38:06.997Z,107.32
2022-12-19T21:40:52.818Z,107.80
2022-12-19T21:43:38.820Z,107.53
2022-12-19T21:46:28.330Z,117.38
2022-12-19T21:49:14.311Z,108.97
2022-12-19T21:52:00.657Z,116.32
2022-12-19T21:54:46.692Z,106.85
2022-12-19T21:57:32.449Z,100.95
2022-12-19T22:00:18.619Z,105.60
2022-12-19T22:03:19.855Z,96.60
2022-12-19T22:06:19.968Z,112.55
2022-12-19T22:09:14.875Z,109.80
2022-12-19T22:12:01.089Z,103.90
2022-12-19T22:14:47.414Z,113.82
2022-12-19T22:17:33.335Z,92.32
2022-12-19T22:20:19.178Z,96.72
2022-12-19T22:23:11.315Z,107.97
2022-12-19T22:26:05.142Z,108.50
2022-12-19T22:28:53.277Z,107.70
2022-12-19T22:31:39.972Z,125.50
2022-12-19T22:34:25.893Z,109.43
2022-12-19T22:37:11.619Z,115.80
2022-12-19T22:40:00.189Z,109.28
2022-12-19T22:42:46.238Z,115.60
2022-12-19T22:45:31.894Z,111.82
2022-12-19T22:48:17.612Z,110.05
2022-12-19T22:51:04.039Z,115.10
2022-12-19T22:53:50.047Z,114.20
2022-12-19T22:56:36.256Z,107.07
2022-12-19T22:59:22.082Z,119.70
2022-12-19T23:02:08.872Z,108.75
2022-12-19T23:04:54.948Z,116.85
2022-12-19T23:07:40.658Z,118.28
2022-12-19T23:10:26.560Z,129.43
2022-12-19T23:13:12.593Z,117.47
2022-12-19T23:15:58.476Z,117.78
2022-12-19T23:18:44.626Z,112.25
2022-12-19T23:21:30.702Z,113.03
2022-12-19T23:24:16.730Z,121.25
2022-12-19T23:27:02.925Z,118.35
2022-12-19T23:29:49.725Z,117.78
2022-12-19T23:32:35.907Z,117.70
2022-12-19T23:35:21.929Z,123.40
2022-12-19T23:38:07.767Z,118.07
2022-12-19T23:41:02.048Z,111.10
2022-12-19T23:43:48.665Z,124.80
2022-12-19T23:46:34.585Z,117.95
2022-12-19T23:49:20.167Z,128.82
2022-12-19T23:52:06.160Z,124.20
2022-12-19T23:54:52.335Z,116.05
2022-12-19T23:57:38.346Z,125.90
